Time;durP1;ratioP1;P1;durP2;ratioP2;P2;SDS_P1;SDS_P2;PMS_P1;PMS_P2;Temp;Humidity;BMP_temperature;BMP_pressure;BME280_temperature;BME280_humidity;BME280_pressure;Samples;Min_cycle;Max_cycle;Signal;HPM_P1;HPM_P2
2022/06/10 00:02:17;;;;;;;13.88;2.95;;;;;;;;;;6157833;23;20026;-82
2022/06/10 00:04:46;;;;;;;9.32;2.50;;;;;;;;;;6157101;23;20022;-82
2022/06/10 00:07:13;;;;;;;11.65;2.78;;;;;;;;;;6157233;23;20825;-81
2022/06/10 00:09:40;;;;;;;15.65;2.47;;;;;;;;;;6158080;23;20903;-81
2022/06/10 00:12:10;;;;;;;14.02;2.70;;;;;;;;;;6156937;23;20018;-81
2022/06/10 00:14:37;;;;;;;11.63;2.80;;;;;;;;;;6156958;23;20093;-81
2022/06/10 00:17:05;;;;;;;11.23;2.70;;;;;;;;;;6156294;23;20034;-81
2022/06/10 00:19:32;;;;;;;8.95;2.80;;;;;;;;;;6156354;23;20093;-82
2022/06/10 00:22:01;;;;;;;11.10;2.75;;;;;;;;;;6156622;23;20077;-81
2022/06/10 00:24:28;;;;;;;8.32;2.40;;;;;;;;;;6155653;23;20084;-81
2022/06/10 00:26:56;;;;;;;9.00;2.60;;;;;;;;;;6156147;23;20033;-81
2022/06/10 00:29:23;;;;;;;13.70;3.28;;;;;;;;;;6157777;23;20057;-82
2022/06/10 00:31:50;;;;;;;9.63;3.28;;;;;;;;;;6158240;23;20771;-84
2022/06/10 00:34:19;;;;;;;12.43;3.30;;;;;;;;;;6156793;23;20739;-83
2022/06/10 00:36:47;;;;;;;7.97;2.88;;;;;;;;;;6159192;23;20999;-84
2022/06/10 00:39:14;;;;;;;13.45;3.00;;;;;;;;;;6157776;23;20094;-83
2022/06/10 00:41:44;;;;;;;17.02;3.67;;;;;;;;;;6157261;23;20018;-83
2022/06/10 00:44:44;;;;;;;8.38;2.95;;;;;;;;;;6157856;23;20057;-83
2022/06/10 00:47:15;;;;;;;11.82;3.60;;;;;;;;;;6140435;23;20511;-83
2022/06/10 00:49:44;;;;;;;12.93;3.75;;;;;;;;;;6158756;23;20120;-84
2022/06/10 00:52:24;;;;;;;8.98;3.65;;;;;;;;;;6157401;23;20018;-83
2022/06/10 00:54:53;;;;;;;14.60;3.85;;;;;;;;;;6157852;23;20092;-83
2022/06/10 00:57:22;;;;;;;10.10;3.50;;;;;;;;;;6159367;23;20104;-83
2022/06/10 01:00:01;;;;;;;19.55;4.25;;;;;;;;;;6159461;23;20718;-83
2022/06/10 01:02:31;;;;;;;13.38;4.20;;;;;;;;;;6159678;23;20061;-83
2022/06/10 01:04:59;;;;;;;17.02;4.38;;;;;;;;;;6158096;23;20036;-83
2022/06/10 01:07:31;;;;;;;15.00;4.00;;;;;;;;;;6159293;23;20026;-83
2022/06/10 01:10:02;;;;;;;22.00;4.20;;;;;;;;;;6159145;23;20034;-82
2022/06/10 01:12:39;;;;;;;15.27;3.85;;;;;;;;;;6157151;23;20061;-82
2022/06/10 01:15:12;;;;;;;19.05;4.32;;;;;;;;;;6156832;23;20867;-82
2022/06/10 01:17:39;;;;;;;;;;;;;;;;;;6158241;23;20896;-82
2022/06/10 01:20:10;;;;;;;11.18;3.40;;;;;;;;;;6156176;23;44645;-82
2022/06/10 01:22:49;;;;;;;12.80;3.88;;;;;;;;;;6159478;23;20061;-83
2022/06/10 01:25:36;;;;;;;10.02;4.28;;;;;;;;;;6158802;23;20025;-82
2022/06/10 01:28:03;;;;;;;16.70;4.50;;;;;;;;;;6158963;23;20791;-82
2022/06/10 01:30:49;;;;;;;16.80;4.28;;;;;;;;;;6157138;23;20030;-83
2022/06/10 01:33:40;;;;;;;18.73;4.50;;;;;;;;;;6159501;23;20021;-82
2022/06/10 01:36:29;;;;;;;14.70;4.50;;;;;;;;;;6130920;23;20018;-83
2022/06/10 01:39:16;;;;;;;17.65;4.65;;;;;;;;;;6156675;23;20522;-84
2022/06/10 01:41:43;;;;;;;21.98;5.03;;;;;;;;;;6156437;23;20158;-84
2022/06/10 01:44:14;;;;;;;17.35;4.25;;;;;;;;;;6156584;23;20154;-84
2022/06/10 01:46:47;;;;;;;17.70;4.35;;;;;;;;;;6131649;23;20026;-83
2022/06/10 01:49:21;;;;;;;14.53;4.17;;;;;;;;;;6132381;23;20042;-82
2022/06/10 01:52:01;;;;;;;15.85;4.28;;;;;;;;;;6156837;23;20078;-83
2022/06/10 01:54:34;;;;;;;16.00;4.45;;;;;;;;;;6132240;23;20216;-83
2022/06/10 01:57:01;;;;;;;;;;;;;;;;;;6132427;23;20022;-83
2022/06/10 01:59:31;;;;;;;16.02;5.00;;;;;;;;;;6155591;23;42281;-83
2022/06/10 02:02:10;;;;;;;13.18;4.43;;;;;;;;;;6132182;23;20152;-84
2022/06/10 02:04:42;;;;;;;12.80;4.80;;;;;;;;;;6156340;23;20069;-83
2022/06/10 02:07:20;;;;;;;19.42;4.90;;;;;;;;;;6131415;23;20077;-83
2022/06/10 02:09:49;;;;;;;16.20;4.22;;;;;;;;;;6131667;23;20022;-83
2022/06/10 02:12:21;;;;;;;10.93;3.83;;;;;;;;;;6155934;23;20061;-83
2022/06/10 02:14:53;;;;;;;12.85;3.72;;;;;;;;;;6157737;23;20022;-83
2022/06/10 02:17:21;;;;;;;12.70;4.10;;;;;;;;;;6159131;23;20026;-83
2022/06/10 02:19:54;;;;;;;13.45;4.45;;;;;;;;;;6157701;23;20097;-83
2022/06/10 02:22:27;;;;;;;20.77;4.03;;;;;;;;;;6157579;23;20029;-84
2022/06/10 02:25:15;;;;;;;15.85;4.13;;;;;;;;;;6158111;23;20491;-83
2022/06/10 02:27:48;;;;;;;17.88;4.03;;;;;;;;;;6152525;23;20022;-83
2022/06/10 02:30:17;;;;;;;14.73;4.47;;;;;;;;;;6159288;23;20026;-83
2022/06/10 02:32:47;;;;;;;18.13;4.80;;;;;;;;;;6157632;23;20105;-83
2022/06/10 02:35:16;;;;;;;12.93;3.97;;;;;;;;;;6159656;23;20033;-83
2022/06/10 02:37:55;;;;;;;15.32;4.05;;;;;;;;;;6159109;23;20022;-84
2022/06/10 02:40:36;;;;;;;13.10;3.97;;;;;;;;;;6159406;23;20085;-83
2022/06/10 02:43:06;;;;;;;;;;;;;;;;;;6159494;23;20787;-83
2022/06/10 02:45:42;;;;;;;13.45;3.70;;;;;;;;;;6158606;23;45375;-84
2022/06/10 02:48:19;;;;;;;18.65;5.00;;;;;;;;;;6157621;23;20018;-84
2022/06/10 02:50:47;;;;;;;16.85;5.00;;;;;;;;;;6157920;23;20767;-83
2022/06/10 02:53:14;;;;;;;17.67;4.57;;;;;;;;;;6158025;23;20022;-83
2022/06/10 02:55:42;;;;;;;11.45;4.22;;;;;;;;;;6158444;23;20085;-83
2022/06/10 03:01:16;;;;;;;14.82;3.60;;;;;;;;;;6160100;23;20045;-83
2022/06/10 03:04:11;;;;;;;14.40;3.67;;;;;;;;;;6160355;23;20030;-84
2022/06/10 03:06:43;;;;;;;12.05;3.60;;;;;;;;;;6159411;23;20360;-83
2022/06/10 03:09:13;;;;;;;16.13;3.20;;;;;;;;;;6158613;23;20072;-83
2022/06/10 03:11:49;;;;;;;13.57;3.42;;;;;;;;;;6158288;23;20937;-83
2022/06/10 03:14:16;;;;;;;;;;;;;;;;;;6160145;23;20077;-83
2022/06/10 03:17:10;;;;;;;17.15;3.17;;;;;;;;;;6157074;23;45694;-82
2022/06/10 03:19:37;;;;;;;;;;;;;;;;;;6159079;23;20033;-82
2022/06/10 03:22:13;;;;;;;15.00;3.30;;;;;;;;;;6157372;23;44744;-83
2022/06/10 03:24:46;;;;;;;14.30;3.63;;;;;;;;;;6157998;23;20814;-83
2022/06/10 03:27:23;;;;;;;16.23;3.67;;;;;;;;;;6159807;23;20018;-83
2022/06/10 03:29:58;;;;;;;18.38;4.00;;;;;;;;;;6159448;23;20025;-84
2022/06/10 03:32:39;;;;;;;13.93;3.67;;;;;;;;;;6159054;23;20031;-83
2022/06/10 03:35:24;;;;;;;11.98;3.42;;;;;;;;;;6160108;23;20030;-83
2022/06/10 03:37:57;;;;;;;15.68;3.55;;;;;;;;;;6158702;23;20028;-83
2022/06/10 03:40:26;;;;;;;10.75;3.78;;;;;;;;;;6159602;23;20045;-83
2022/06/10 03:42:54;;;;;;;15.77;3.97;;;;;;;;;;6160227;23;20049;-83
2022/06/10 03:45:23;;;;;;;17.25;4.38;;;;;;;;;;6159226;23;20026;-83
2022/06/10 03:47:53;;;;;;;13.18;3.80;;;;;;;;;;6158571;23;20026;-83
2022/06/10 03:50:28;;;;;;;16.50;3.80;;;;;;;;;;6157635;23;20029;-83
2022/06/10 03:52:56;;;;;;;13.18;3.47;;;;;;;;;;6160073;23;20026;-84
2022/06/10 03:55:23;;;;;;;15.85;3.25;;;;;;;;;;6158217;23;20030;-84
2022/06/10 03:57:50;;;;;;;20.25;3.42;;;;;;;;;;6157847;23;20022;-83
2022/06/10 04:00:20;;;;;;;15.00;3.42;;;;;;;;;;6160587;23;20022;-83
2022/06/10 04:02:49;;;;;;;11.98;3.20;;;;;;;;;;6159165;23;20923;-84
2022/06/10 04:05:17;;;;;;;11.95;2.95;;;;;;;;;;6158885;23;20448;-84
2022/06/10 04:07:45;;;;;;;13.95;3.03;;;;;;;;;;6157824;23;20033;-83
2022/06/10 04:10:13;;;;;;;17.45;3.60;;;;;;;;;;6160610;23;20101;-83
2022/06/10 04:12:41;;;;;;;13.43;2.58;;;;;;;;;;6159651;23;20022;-83
2022/06/10 04:15:11;;;;;;;19.50;3.38;;;;;;;;;;6159496;23;20812;-83
2022/06/10 04:17:41;;;;;;;18.70;3.05;;;;;;;;;;6160292;23;20033;-83
2022/06/10 04:20:12;;;;;;;13.23;3.00;;;;;;;;;;6160288;23;20755;-84
2022/06/10 04:22:39;;;;;;;18.35;2.95;;;;;;;;;;6160112;23;20353;-83
2022/06/10 04:25:06;;;;;;;19.75;3.20;;;;;;;;;;6160719;23;20461;-83
2022/06/10 04:27:33;;;;;;;17.88;2.80;;;;;;;;;;6160368;23;20576;-82
2022/06/10 04:30:03;;;;;;;13.65;2.40;;;;;;;;;;6161765;23;20047;-83
2022/06/10 04:32:33;;;;;;;14.85;2.75;;;;;;;;;;6162502;23;20108;-83
2022/06/10 04:35:00;;;;;;;19.98;3.20;;;;;;;;;;6162075;23;20108;-83
2022/06/10 04:37:30;;;;;;;11.23;2.80;;;;;;;;;;6161078;23;20809;-83
2022/06/10 04:39:57;;;;;;;11.02;2.35;;;;;;;;;;6159384;23;20827;-83
2022/06/10 04:42:27;;;;;;;12.18;2.53;;;;;;;;;;6162057;23;20073;-83
2022/06/10 04:44:57;;;;;;;10.73;2.85;;;;;;;;;;6160279;23;20708;-83
2022/06/10 04:47:24;;;;;;;10.73;2.80;;;;;;;;;;6160237;23;20021;-83
2022/06/10 04:49:59;;;;;;;12.38;2.90;;;;;;;;;;6159277;23;20081;-84
2022/06/10 04:52:30;;;;;;;12.10;2.72;;;;;;;;;;6159386;23;20970;-83
2022/06/10 04:54:57;;;;;;;11.90;2.63;;;;;;;;;;6161716;23;20034;-83
2022/06/10 04:57:26;;;;;;;13.73;2.72;;;;;;;;;;6158814;23;20093;-83
2022/06/10 04:59:53;;;;;;;13.23;2.50;;;;;;;;;;6159776;23;20029;-83
2022/06/10 05:02:21;;;;;;;11.05;2.47;;;;;;;;;;6160263;23;20029;-83
2022/06/10 05:04:50;;;;;;;10.80;2.50;;;;;;;;;;6160978;23;20823;-83
2022/06/10 05:07:17;;;;;;;12.07;2.83;;;;;;;;;;6159103;23;20564;-83
2022/06/10 05:09:44;;;;;;;14.88;2.40;;;;;;;;;;6159375;23;20033;-83
2022/06/10 05:12:11;;;;;;;12.30;2.67;;;;;;;;;;6160028;23;20037;-83
2022/06/10 05:14:39;;;;;;;9.95;2.45;;;;;;;;;;6159689;23;20006;-83
2022/06/10 05:17:06;;;;;;;11.57;2.58;;;;;;;;;;6161270;23;20018;-84
2022/06/10 05:19:33;;;;;;;15.65;2.67;;;;;;;;;;6160955;23;20025;-82
2022/06/10 05:22:00;;;;;;;13.95;2.85;;;;;;;;;;6161553;23;20010;-83
2022/06/10 05:24:28;;;;;;;14.68;2.95;;;;;;;;;;6162924;23;20022;-83
2022/06/10 05:26:55;;;;;;;20.20;3.80;;;;;;;;;;6159700;23;20033;-82
2022/06/10 05:29:22;;;;;;;18.05;3.63;;;;;;;;;;6160829;23;20025;-83
2022/06/10 05:31:49;;;;;;;15.27;2.85;;;;;;;;;;6159741;23;20080;-83
2022/06/10 05:37:05;;;;;;;13.63;3.22;;;;;;;;;;6161348;23;20018;-83
2022/06/10 05:39:34;;;;;;;15.18;3.05;;;;;;;;;;6159651;23;20113;-83
2022/06/10 05:42:04;;;;;;;14.73;2.83;;;;;;;;;;6161181;23;20029;-83
2022/06/10 05:44:37;;;;;;;12.63;3.55;;;;;;;;;;6161223;23;20034;-83
2022/06/10 05:47:07;;;;;;;14.90;2.47;;;;;;;;;;6161515;23;20022;-83
2022/06/10 05:49:36;;;;;;;11.13;2.55;;;;;;;;;;6159886;23;20352;-83
2022/06/10 05:52:04;;;;;;;16.73;2.88;;;;;;;;;;6159706;23;20022;-83
2022/06/10 05:54:31;;;;;;;8.75;2.95;;;;;;;;;;6160216;23;20050;-83
2022/06/10 05:56:58;;;;;;;15.02;2.95;;;;;;;;;;6160610;23;20468;-84
2022/06/10 05:59:29;;;;;;;14.68;3.28;;;;;;;;;;6159926;23;20364;-83
2022/06/10 06:02:06;;;;;;;12.20;2.75;;;;;;;;;;6160940;23;20060;-83
2022/06/10 06:04:34;;;;;;;18.83;3.17;;;;;;;;;;6161367;23;20028;-84
2022/06/10 06:07:02;;;;;;;11.68;2.70;;;;;;;;;;6161097;23;20077;-83
2022/06/10 06:09:40;;;;;;;11.82;2.53;;;;;;;;;;6158495;23;20018;-83
2022/06/10 06:12:08;;;;;;;11.70;2.35;;;;;;;;;;6159144;23;20018;-83
2022/06/10 06:14:36;;;;;;;13.35;2.38;;;;;;;;;;6157729;23;20018;-83
2022/06/10 06:17:04;;;;;;;10.48;2.60;;;;;;;;;;6158693;23;20018;-83
2022/06/10 06:19:35;;;;;;;14.10;2.42;;;;;;;;;;6158935;23;20046;-82
2022/06/10 06:22:03;;;;;;;13.43;2.60;;;;;;;;;;6159541;23;20081;-83
2022/06/10 06:24:36;;;;;;;14.60;2.30;;;;;;;;;;6161546;23;20830;-83
2022/06/10 06:27:03;;;;;;;9.43;2.13;;;;;;;;;;6176454;23;20070;-83
2022/06/10 06:29:30;;;;;;;14.13;2.50;;;;;;;;;;6166960;23;20026;-82
2022/06/10 06:31:58;;;;;;;16.73;2.25;;;;;;;;;;6165059;23;20018;-82
2022/06/10 06:34:26;;;;;;;8.95;2.40;;;;;;;;;;6166339;23;20033;-83
2022/06/10 06:36:59;;;;;;;12.32;2.63;;;;;;;;;;6162527;23;20021;-84
2022/06/10 06:39:27;;;;;;;10.25;2.20;;;;;;;;;;6163569;23;20101;-83
2022/06/10 06:41:55;;;;;;;16.10;3.25;;;;;;;;;;6163753;23;20024;-84
2022/06/10 06:44:26;;;;;;;14.23;2.78;;;;;;;;;;6163855;23;20026;-83
2022/06/10 06:46:53;;;;;;;11.43;2.45;;;;;;;;;;6165770;23;20020;-83
2022/06/10 06:49:28;;;;;;;8.98;2.20;;;;;;;;;;6160103;23;20026;-83
2022/06/10 06:52:04;;;;;;;10.18;2.78;;;;;;;;;;6164958;23;20022;-83
2022/06/10 06:54:33;;;;;;;14.82;2.60;;;;;;;;;;6175014;23;20018;-83
2022/06/10 06:57:01;;;;;;;13.50;2.38;;;;;;;;;;6174412;23;20030;-85
2022/06/10 06:59:29;;;;;;;10.48;2.67;;;;;;;;;;6176405;23;20022;-84
2022/06/10 07:01:57;;;;;;;14.77;2.75;;;;;;;;;;6175566;23;20045;-84
2022/06/10 07:04:26;;;;;;;11.63;3.25;;;;;;;;;;6172667;23;20117;-83
2022/06/10 07:07:05;;;;;;;12.73;3.00;;;;;;;;;;6171612;23;20070;-83
2022/06/10 07:09:32;;;;;;;12.82;3.65;;;;;;;;;;6173519;23;20112;-83
2022/06/10 07:11:59;;;;;;;14.45;2.80;;;;;;;;;;6171822;23;20018;-84
2022/06/10 07:14:27;;;;;;;13.30;3.13;;;;;;;;;;6171788;23;20101;-84
2022/06/10 07:16:57;;;;;;;17.08;3.03;;;;;;;;;;6169278;23;20018;-84
2022/06/10 07:19:24;;;;;;;12.75;2.60;;;;;;;;;;6174168;23;20865;-84
2022/06/10 07:21:56;;;;;;;13.35;2.92;;;;;;;;;;6174818;23;20018;-85
2022/06/10 07:24:23;;;;;;;12.40;3.90;;;;;;;;;;6174077;23;20017;-83
2022/06/10 07:26:55;;;;;;;13.57;3.33;;;;;;;;;;6173699;23;20074;-84
2022/06/10 07:29:22;;;;;;;12.90;2.88;;;;;;;;;;6181318;23;20046;-83
2022/06/10 07:31:49;;;;;;;11.02;2.60;;;;;;;;;;6179659;23;20020;-85
2022/06/10 07:34:18;;;;;;;15.85;3.13;;;;;;;;;;6181324;23;20095;-83
2022/06/10 07:36:46;;;;;;;10.63;2.78;;;;;;;;;;6180285;23;20074;-84
2022/06/10 07:39:14;;;;;;;12.25;2.78;;;;;;;;;;6176568;23;20022;-84
2022/06/10 07:42:01;;;;;;;12.55;3.63;;;;;;;;;;6168496;23;20810;-84
2022/06/10 07:44:30;;;;;;;15.80;3.08;;;;;;;;;;6168268;23;20037;-84
2022/06/10 07:46:59;;;;;;;11.43;2.60;;;;;;;;;;6170585;23;20101;-85
2022/06/10 07:49:31;;;;;;;11.85;3.42;;;;;;;;;;6171169;23;20018;-84
2022/06/10 07:52:01;;;;;;;10.60;3.08;;;;;;;;;;6172469;23;20018;-83
2022/06/10 07:54:36;;;;;;;14.30;2.97;;;;;;;;;;6173518;23;20017;-83
2022/06/10 07:57:06;;;;;;;15.73;2.72;;;;;;;;;;6173200;23;20022;-84
2022/06/10 07:59:42;;;;;;;10.82;2.90;;;;;;;;;;6170716;23;20780;-84
2022/06/10 08:03:13;;;;;;;8.10;2.75;;;;;;;;;;6152688;23;20018;-84
2022/06/10 08:09:50;;;;;;;17.30;3.30;;;;;;;;;;6192874;23;20021;-84
2022/06/10 08:16:05;;;;;;;11.55;2.65;;;;;;;;;;5987094;23;20017;-84
2022/06/10 08:18:58;;;;;;;;;;;;;;;;;;;;;
2022/06/10 08:25:59;;;;;;;;;;;;;;;;;;;;;
2022/06/10 08:29:27;;;;;;;;;;;;;;;;;;;;;
2022/06/10 08:43:28;;;;;;;10.85;2.55;;;;;;;;;;5910553;24;20026;-85
2022/06/10 10:07:00;;;;;;;14.80;2.97;;;;;;;;;;6099161;22;4523112;-86
2022/06/10 10:09:39;;;;;;;13.07;2.90;;;;;;;;;;6282603;22;20773;-85
2022/06/10 10:12:18;;;;;;;9.68;2.63;;;;;;;;;;6283110;22;20020;-86
2022/06/10 10:15:00;;;;;;;19.80;2.75;;;;;;;;;;6260596;22;20137;-85
2022/06/10 10:35:21;;;;;;;11.38;2.63;;;;;;;;;;6289554;22;20730;-86
2022/06/10 10:38:02;;;;;;;8.18;2.30;;;;;;;;;;6246143;22;20028;-85
2022/06/10 10:40:39;;;;;;;13.98;2.90;;;;;;;;;;6248274;22;20463;-86
2022/06/10 10:43:10;;;;;;;8.98;2.08;;;;;;;;;;6274467;22;20526;-85
2022/06/10 10:45:39;;;;;;;8.02;2.35;;;;;;;;;;6248155;22;20054;-86
2022/06/10 10:48:18;;;;;;;14.50;2.90;;;;;;;;;;6246587;22;20016;-85
2022/06/10 10:51:12;;;;;;;16.90;3.03;;;;;;;;;;6248125;22;20070;-85
2022/06/10 10:54:08;;;;;;;11.02;2.78;;;;;;;;;;6250878;22;20030;-86
2022/06/10 10:56:38;;;;;;;11.70;2.72;;;;;;;;;;6248808;22;20102;-86
2022/06/10 10:59:06;;;;;;;10.40;2.53;;;;;;;;;;6248829;22;20059;-86
2022/06/10 14:00:58;;;;;;;9.70;2.40;;;;;;;;;;6191811;22;20032;31
2022/06/10 14:03:52;;;;;;;7.43;2.35;;;;;;;;;;6203632;23;20013;-85
2022/06/10 14:06:50;;;;;;;8.45;2.70;;;;;;;;;;6179700;23;20112;-84
2022/06/10 14:09:44;;;;;;;8.13;2.42;;;;;;;;;;6205130;23;20017;-85
2022/06/10 14:12:26;;;;;;;10.43;2.65;;;;;;;;;;6180259;23;20445;-85
2022/06/10 14:15:26;;;;;;;6.45;2.05;;;;;;;;;;6179941;23;20029;-85
2022/06/10 14:18:05;;;;;;;9.77;3.10;;;;;;;;;;6175207;23;20013;-85
2022/06/10 14:20:53;;;;;;;8.25;2.65;;;;;;;;;;6176719;23;20025;-85
2022/06/10 14:23:30;;;;;;;11.52;2.92;;;;;;;;;;6174631;23;20028;-85
2022/06/10 14:26:24;;;;;;;11.43;2.97;;;;;;;;;;6179195;23;20057;-85
2022/06/10 14:29:33;;;;;;;10.40;2.63;;;;;;;;;;6174943;23;20407;-84
2022/06/10 14:32:34;;;;;;;11.60;3.38;;;;;;;;;;6178148;23;20073;-85
2022/06/10 14:35:24;;;;;;;9.68;3.42;;;;;;;;;;6199647;23;20024;-84
2022/06/10 14:38:16;;;;;;;8.35;2.75;;;;;;;;;;6176887;23;20147;-84
2022/06/10 14:44:44;;;;;;;13.75;3.05;;;;;;;;;;6073160;23;20015;-84
2022/06/10 14:50:49;;;;;;;8.35;3.15;;;;;;;;;;6025431;23;20040;-84
2022/06/10 14:53:21;;;;;;;7.60;2.78;;;;;;;;;;6030022;23;20029;-84
2022/06/10 14:55:56;;;;;;;15.88;3.15;;;;;;;;;;6028839;23;20024;-84
2022/06/10 14:58:37;;;;;;;8.40;2.83;;;;;;;;;;6090902;23;20015;-84
2022/06/10 15:01:34;;;;;;;8.10;2.80;;;;;;;;;;6115220;23;20019;-84
2022/06/10 15:04:33;;;;;;;11.65;2.95;;;;;;;;;;5998746;23;20028;-84
2022/06/10 15:07:25;;;;;;;9.40;2.85;;;;;;;;;;5994697;23;20463;-85
2022/06/10 15:09:57;;;;;;;9.20;2.92;;;;;;;;;;6000287;23;20036;-84
2022/06/10 15:12:33;;;;;;;9.02;3.10;;;;;;;;;;6001364;23;20100;-84
2022/06/10 15:15:10;;;;;;;;;;;;;;;;;;6001152;23;20017;-86
2022/06/10 15:17:53;;;;;;;13.43;3.05;;;;;;;;;;6001030;23;45478;-84
2022/06/10 15:20:31;;;;;;;9.98;2.90;;;;;;;;;;6045730;23;20090;-84
2022/06/10 15:23:14;;;;;;;10.07;2.72;;;;;;;;;;6100848;23;20073;-85
2022/06/10 15:25:52;;;;;;;8.18;2.63;;;;;;;;;;6116883;23;20070;-85
2022/06/10 15:28:26;;;;;;;9.68;2.85;;;;;;;;;;6172862;23;20006;-84
2022/06/10 15:31:21;;;;;;;;;;;;;;;;;;;;;
2022/06/10 15:40:42;;;;;;;10.00;2.83;;;;;;;;;;6190832;23;20017;-84
2022/06/10 15:41:08;;;;;;;9.63;2.95;;;;;;;;;;6205154;23;20021;-86
2022/06/10 15:43:49;;;;;;;9.38;2.80;;;;;;;;;;6182921;23;20215;-84
2022/06/10 15:46:38;;;;;;;10.02;2.78;;;;;;;;;;6185226;23;20065;-84
2022/06/10 15:49:15;;;;;;;8.38;2.92;;;;;;;;;;6182115;23;20818;-85
2022/06/10 15:52:09;;;;;;;11.68;2.90;;;;;;;;;;6183239;23;20001;-85
2022/06/10 15:57:46;;;;;;;10.10;3.00;;;;;;;;;;6209434;23;20017;-84
2022/06/10 16:00:38;;;;;;;9.27;2.90;;;;;;;;;;6185610;23;20034;-85
2022/06/10 16:03:14;;;;;;;9.75;2.80;;;;;;;;;;6184611;23;20022;-84
2022/06/10 16:06:03;;;;;;;10.15;2.83;;;;;;;;;;6187694;23;20018;-85
2022/06/10 16:08:38;;;;;;;8.52;2.92;;;;;;;;;;6186460;23;20028;-85
2022/06/10 16:11:17;;;;;;;14.32;3.08;;;;;;;;;;6185216;23;20014;-83
2022/06/10 16:13:49;;;;;;;7.70;2.58;;;;;;;;;;6181255;23;20037;-84
2022/06/10 16:16:21;;;;;;;;;;;;;;;;;;6183640;23;20017;-81
2022/06/10 16:19:07;;;;;;;;;;;;;;;;;;;;;
2022/06/10 16:21:41;;;;;;;9.35;2.50;;;;;;;;;;6201036;23;20025;-83
2022/06/10 16:24:16;;;;;;;10.02;2.70;;;;;;;;;;6167432;23;20100;-83
2022/06/10 16:26:47;;;;;;;15.52;2.95;;;;;;;;;;6166478;23;20041;-83
2022/06/10 16:29:39;;;;;;;10.18;2.83;;;;;;;;;;6168454;23;20064;-84
2022/06/10 16:32:17;;;;;;;11.45;3.35;;;;;;;;;;6167974;23;20030;-83
2022/06/10 16:35:02;;;;;;;12.57;3.35;;;;;;;;;;6170182;23;20029;-84
2022/06/10 16:38:23;;;;;;;12.13;2.58;;;;;;;;;;6173367;23;20018;-84
2022/06/10 16:41:48;;;;;;;10.98;2.78;;;;;;;;;;6167632;23;20017;-83
2022/06/10 16:44:41;;;;;;;11.88;3.25;;;;;;;;;;6166182;23;20018;-84
2022/06/10 16:47:36;;;;;;;8.50;2.97;;;;;;;;;;6171548;23;20026;-84
2022/06/10 16:50:39;;;;;;;;;;;;;;;;;;;;;
2022/06/10 16:53:16;;;;;;;7.25;2.75;;;;;;;;;;6192304;23;20022;-84
2022/06/10 16:56:45;;;;;;;8.63;3.05;;;;;;;;;;6171275;23;20033;-83
2022/06/10 16:59:23;;;;;;;11.80;2.80;;;;;;;;;;6167353;23;20026;-83
2022/06/10 17:02:14;;;;;;;11.85;2.83;;;;;;;;;;6166738;23;20042;-83
2022/06/10 17:05:22;;;;;;;15.77;2.70;;;;;;;;;;6164583;23;20032;-84
2022/06/10 17:07:50;;;;;;;17.73;3.25;;;;;;;;;;6169642;23;20021;-83
2022/06/10 17:10:31;;;;;;;8.13;2.70;;;;;;;;;;6172159;23;20022;-83
2022/06/10 17:13:15;;;;;;;10.77;2.80;;;;;;;;;;6172402;23;20022;-84
2022/06/10 17:15:54;;;;;;;11.45;2.95;;;;;;;;;;6186753;23;20097;-85
2022/06/10 17:18:27;;;;;;;10.90;3.00;;;;;;;;;;6199154;23;20063;-83
2022/06/10 17:21:05;;;;;;;16.17;2.50;;;;;;;;;;6173256;23;20757;-84
2022/06/10 17:23:33;;;;;;;12.77;3.00;;;;;;;;;;6177503;23;20021;-85
2022/06/10 17:26:15;;;;;;;9.38;2.67;;;;;;;;;;6175270;23;20021;-84
2022/06/10 17:28:46;;;;;;;10.85;2.40;;;;;;;;;;6166538;23;20136;-83
2022/06/10 17:31:25;;;;;;;16.05;2.90;;;;;;;;;;6175201;23;20013;-85
2022/06/10 17:34:05;;;;;;;10.48;2.83;;;;;;;;;;6184319;23;20017;-85
2022/06/10 17:36:46;;;;;;;11.55;3.25;;;;;;;;;;6185253;23;20025;-85
2022/06/10 17:39:36;;;;;;;13.30;3.05;;;;;;;;;;6185732;23;20029;-85
2022/06/10 17:42:41;;;;;;;14.43;3.55;;;;;;;;;;6185597;23;20077;-84
2022/06/10 17:45:35;;;;;;;11.10;2.97;;;;;;;;;;6186855;23;20021;-84
2022/06/10 17:51:28;;;;;;;11.85;3.05;;;;;;;;;;6208536;23;20045;-84
2022/06/10 17:54:15;;;;;;;14.02;3.15;;;;;;;;;;6182039;23;20021;-84
2022/06/10 17:56:47;;;;;;;14.85;3.58;;;;;;;;;;6183267;23;20010;-83
2022/06/10 17:59:20;;;;;;;10.90;3.10;;;;;;;;;;6181397;23;20024;-84
2022/06/10 18:01:51;;;;;;;8.95;2.92;;;;;;;;;;6182024;23;20041;-85
2022/06/10 18:04:41;;;;;;;16.33;3.40;;;;;;;;;;6188409;23;20018;-84
2022/06/10 18:07:17;;;;;;;15.60;3.65;;;;;;;;;;6187179;23;20108;-85
2022/06/10 18:09:55;;;;;;;10.90;3.17;;;;;;;;;;6208210;23;20026;-84
2022/06/10 18:12:37;;;;;;;11.50;3.08;;;;;;;;;;6182906;23;20006;-83
2022/06/10 18:15:16;;;;;;;11.57;3.10;;;;;;;;;;6186638;23;20024;-84
2022/06/10 18:17:52;;;;;;;14.35;3.50;;;;;;;;;;6179898;23;20045;-83
2022/06/10 18:20:37;;;;;;;12.35;3.33;;;;;;;;;;6174778;23;20014;-83
2022/06/10 18:23:19;;;;;;;;;;;;;;;;;;;;;
2022/06/10 18:25:53;;;;;;;9.07;3.20;;;;;;;;;;6208248;23;20045;-84
2022/06/10 18:28:26;;;;;;;11.60;2.90;;;;;;;;;;6182760;23;20065;-83
2022/06/10 18:31:08;;;;;;;9.98;3.80;;;;;;;;;;6185266;23;20022;-84
2022/06/10 18:34:02;;;;;;;13.55;3.13;;;;;;;;;;6175832;23;20033;-84
2022/06/10 18:36:34;;;;;;;9.27;2.90;;;;;;;;;;6172152;23;20024;-83
2022/06/10 18:39:10;;;;;;;11.52;3.05;;;;;;;;;;6177646;23;20021;-84
2022/06/10 18:41:47;;;;;;;14.90;3.45;;;;;;;;;;6186125;23;20009;-86
2022/06/10 18:44:14;;;;;;;9.05;3.05;;;;;;;;;;6211288;23;20034;-83
2022/06/10 18:46:46;;;;;;;13.98;3.30;;;;;;;;;;6184361;23;20037;-84
2022/06/10 18:49:37;;;;;;;13.85;3.00;;;;;;;;;;6179745;23;20045;-84
2022/06/10 18:52:08;;;;;;;14.45;3.15;;;;;;;;;;6185606;23;20021;-83
2022/06/10 18:54:48;;;;;;;10.43;2.83;;;;;;;;;;6188065;23;20033;-85
2022/06/10 18:57:15;;;;;;;10.60;2.90;;;;;;;;;;6186708;23;20032;-84
2022/06/10 18:59:45;;;;;;;9.93;2.85;;;;;;;;;;6186327;23;20020;-84
2022/06/10 19:02:26;;;;;;;9.02;2.75;;;;;;;;;;6190419;23;20018;-84
2022/06/10 19:04:54;;;;;;;7.40;2.93;;;;;;;;;;6187232;23;20000;-85
2022/06/10 19:07:31;;;;;;;10.38;2.75;;;;;;;;;;6189321;23;20013;-85
2022/06/10 19:10:02;;;;;;;10.02;2.80;;;;;;;;;;6185737;23;20096;-84
2022/06/10 19:12:38;;;;;;;8.70;2.67;;;;;;;;;;6182550;23;20066;-83
2022/06/10 19:15:23;;;;;;;8.18;2.53;;;;;;;;;;6183904;23;20025;-84
2022/06/10 19:18:02;;;;;;;8.88;2.50;;;;;;;;;;6183590;23;20029;-85
2022/06/10 19:20:39;;;;;;;8.55;2.42;;;;;;;;;;6189241;23;20017;-85
2022/06/10 19:23:19;;;;;;;8.32;2.53;;;;;;;;;;6190120;23;20045;-86
2022/06/10 19:25:55;;;;;;;9.15;2.75;;;;;;;;;;6186666;23;20012;-85
2022/06/10 19:28:29;;;;;;;;;;;;;;;;;;6171076;23;20022;-84
2022/06/10 19:30:58;;;;;;;8.88;2.60;;;;;;;;;;6216331;23;44446;-84
2022/06/10 19:33:31;;;;;;;15.60;2.90;;;;;;;;;;6172934;23;20096;-84
2022/06/10 19:36:00;;;;;;;8.65;2.72;;;;;;;;;;6172682;23;20053;-83
2022/06/10 19:38:31;;;;;;;7.07;2.72;;;;;;;;;;6173218;23;20022;-84
2022/06/10 19:40:59;;;;;;;6.75;2.53;;;;;;;;;;6199677;23;20819;-84
2022/06/10 19:46:27;;;;;;;11.00;3.08;;;;;;;;;;6196862;23;20061;-84
2022/06/10 19:48:57;;;;;;;8.93;3.13;;;;;;;;;;6167950;23;20028;-83
2022/06/10 19:51:26;;;;;;;8.07;2.58;;;;;;;;;;6169385;23;20017;-84
2022/06/10 19:53:57;;;;;;;9.85;3.35;;;;;;;;;;6171562;23;20022;-84
2022/06/10 19:56:28;;;;;;;8.43;3.00;;;;;;;;;;6169407;23;20022;-84
2022/06/10 19:58:59;;;;;;;10.73;3.33;;;;;;;;;;6172944;23;20020;-84
2022/06/10 20:01:45;;;;;;;8.27;2.80;;;;;;;;;;6173341;23;20014;-83
2022/06/10 20:04:21;;;;;;;13.85;2.90;;;;;;;;;;6170298;23;20033;-83
2022/06/10 20:06:50;;;;;;;8.68;2.70;;;;;;;;;;6195334;23;20033;-83
2022/06/10 20:09:23;;;;;;;7.20;2.80;;;;;;;;;;6170753;23;20025;-83
2022/06/10 20:11:51;;;;;;;7.38;3.10;;;;;;;;;;6183031;23;20013;-84
2022/06/10 20:14:18;;;;;;;9.25;3.03;;;;;;;;;;6179768;23;20014;-83
2022/06/10 20:16:46;;;;;;;11.77;3.17;;;;;;;;;;6181800;23;20036;-83
2022/06/10 20:19:15;;;;;;;9.57;3.45;;;;;;;;;;6182237;23;20002;-84
2022/06/10 20:21:45;;;;;;;7.82;3.15;;;;;;;;;;6176308;23;20021;-84
2022/06/10 20:24:18;;;;;;;14.25;3.55;;;;;;;;;;6178221;23;20041;-83
2022/06/10 20:26:58;;;;;;;9.95;3.40;;;;;;;;;;6201998;23;20016;-84
2022/06/10 20:29:25;;;;;;;7.35;3.38;;;;;;;;;;6173907;23;20079;-82
2022/06/10 20:32:18;;;;;;;10.27;4.15;;;;;;;;;;6177766;23;20018;-83
2022/06/10 20:34:45;;;;;;;8.45;3.63;;;;;;;;;;6199114;23;20024;-84
2022/06/10 20:37:13;;;;;;;11.38;3.75;;;;;;;;;;6172633;23;20070;-84
2022/06/10 20:39:44;;;;;;;13.60;3.72;;;;;;;;;;6170006;23;20797;-84
2022/06/10 20:42:13;;;;;;;8.35;2.85;;;;;;;;;;6169291;23;20017;-84
2022/06/10 20:44:40;;;;;;;9.15;3.33;;;;;;;;;;6174579;23;20020;-83
2022/06/10 20:47:15;;;;;;;6.55;2.95;;;;;;;;;;6178173;23;20057;-84
2022/06/10 20:49:44;;;;;;;9.88;4.00;;;;;;;;;;6194692;23;20077;-84
2022/06/10 20:52:24;;;;;;;11.07;3.90;;;;;;;;;;6172214;23;20852;-83
2022/06/10 20:54:54;;;;;;;10.00;3.58;;;;;;;;;;6181234;23;20069;-83
2022/06/10 20:57:23;;;;;;;7.88;3.40;;;;;;;;;;6211249;23;20013;-83
2022/06/10 20:59:51;;;;;;;12.23;3.67;;;;;;;;;;6210402;23;20858;-83
2022/06/10 21:02:28;;;;;;;10.85;3.60;;;;;;;;;;6180195;23;20854;-82